createdAt,value
2023-10-10T00:00:57.600Z,6.25
2023-10-10T00:02:06.237Z,7.22
2023-10-10T00:03:09.947Z,6.18
2023-10-10T00:04:13.585Z,7.43
2023-10-10T00:05:19.585Z,6.07
2023-10-10T00:06:23.549Z,6.50
2023-10-10T00:07:28.831Z,6.20
2023-10-10T00:08:34.897Z,5.53
2023-10-10T00:09:37.412Z,5.47
2023-10-10T00:10:48.501Z,6.47
2023-10-10T00:11:52.524Z,5.93
2023-10-10T00:12:56.895Z,5.35
2023-10-10T00:14:06.576Z,5.97
2023-10-10T00:15:21.339Z,6.00
2023-10-10T00:16:27.261Z,5.50
2023-10-10T00:17:36.229Z,6.15
2023-10-10T00:18:44.996Z,6.35
2023-10-10T00:19:55.536Z,5.95
2023-10-10T00:21:07.819Z,6.32
2023-10-10T00:22:11.285Z,6.28
2023-10-10T00:23:17.867Z,5.85
2023-10-10T00:24:31.943Z,6.00
2023-10-10T00:25:38.176Z,5.13
2023-10-10T00:26:43.784Z,5.22
2023-10-10T00:27:47.532Z,5.63
2023-10-10T00:28:55.655Z,5.20
2023-10-10T00:30:04.421Z,5.95
2023-10-10T00:31:09.978Z,5.45
2023-10-10T00:32:18.361Z,6.32
2023-10-10T00:33:21.305Z,5.47
2023-10-10T00:34:29.519Z,5.00
2023-10-10T00:35:32.768Z,5.85
2023-10-10T00:36:36.778Z,5.65
2023-10-10T00:37:39.212Z,6.20
2023-10-10T00:38:44.185Z,5.82
2023-10-10T00:39:53.646Z,5.15
2023-10-10T00:40:59.117Z,5.45
2023-10-10T00:42:05.915Z,5.53
2023-10-10T00:43:14.880Z,6.68
2023-10-10T00:44:18.471Z,6.28
2023-10-10T00:45:22.461Z,5.68
2023-10-10T00:46:28.784Z,6.28
2023-10-10T00:47:33.529Z,6.57
2023-10-10T00:48:39.472Z,6.90
2023-10-10T00:49:46.317Z,5.30
2023-10-10T00:50:52.638Z,5.57
2023-10-10T00:51:57.344Z,6.38
2023-10-10T00:53:01.703Z,5.32
2023-10-10T00:54:14.778Z,6.75
2023-10-10T00:55:22.886Z,6.03
2023-10-10T00:56:30.671Z,6.50
2023-10-10T00:57:36.858Z,6.20
2023-10-10T00:58:40.610Z,7.13
2023-10-10T00:59:46.353Z,5.97
2023-10-10T01:00:52.115Z,5.63
2023-10-10T01:01:54.930Z,6.20
2023-10-10T01:03:19.112Z,4.97
2023-10-10T01:04:36.608Z,5.50
2023-10-10T01:05:53.441Z,5.82
2023-10-10T01:06:55.907Z,6.57
2023-10-10T01:08:00.454Z,7.00
2023-10-10T01:09:21.481Z,5.97
2023-10-10T01:10:26.386Z,6.38
2023-10-10T01:11:30.538Z,6.82
2023-10-10T01:12:36.767Z,6.72
2023-10-10T01:13:41.729Z,5.65
2023-10-10T01:14:45.099Z,6.78
2023-10-10T01:15:47.862Z,6.97
2023-10-10T01:16:56.391Z,7.10
2023-10-10T01:17:58.909Z,5.28
2023-10-10T01:19:02.331Z,6.00
2023-10-10T01:20:12.665Z,5.57
2023-10-10T01:21:21.714Z,7.70
2023-10-10T01:22:36.931Z,5.53
2023-10-10T01:23:40.568Z,7.13
2023-10-10T01:24:43.597Z,5.28
2023-10-10T01:25:47.214Z,5.55
2023-10-10T01:26:52.296Z,6.53
2023-10-10T01:27:57.629Z,5.00
2023-10-10T01:29:14.048Z,5.97
2023-10-10T01:30:19.199Z,5.75
2023-10-10T01:31:25.287Z,6.15
2023-10-10T01:32:27.885Z,5.63
2023-10-10T01:33:37.480Z,5.65
2023-10-10T01:34:45.127Z,5.38
2023-10-10T01:35:47.751Z,5.50
2023-10-10T01:36:52.585Z,5.80
2023-10-10T01:37:56.408Z,6.40
2023-10-10T01:39:27.871Z,5.28
2023-10-10T01:40:38.467Z,4.35
2023-10-10T01:41:42.160Z,4.95
2023-10-10T01:42:46.892Z,5.72
2023-10-10T01:43:54.731Z,5.03
2023-10-10T01:44:57.216Z,4.57
2023-10-10T01:46:16.263Z,4.95
2023-10-10T01:47:23.980Z,4.38
2023-10-10T01:48:27.609Z,4.93
2023-10-10T01:49:30.803Z,5.68
2023-10-10T01:50:35.057Z,4.60
2023-10-10T01:51:43.460Z,5.20
2023-10-10T01:52:51.288Z,4.85
2023-10-10T01:53:53.970Z,4.13
2023-10-10T01:54:57.289Z,4.30
2023-10-10T01:56:07.943Z,4.72
2023-10-10T01:57:22.259Z,4.65
2023-10-10T01:58:27.131Z,4.80
2023-10-10T01:59:36.711Z,4.85
2023-10-10T02:00:47.586Z,5.32
2023-10-10T02:01:52.581Z,4.55
2023-10-10T02:02:57.019Z,4.60
2023-10-10T02:04:06.393Z,4.65
2023-10-10T02:05:12.464Z,4.22
2023-10-10T02:06:25.712Z,3.67
2023-10-10T02:07:33.240Z,4.95
2023-10-10T02:08:40.361Z,6.20
2023-10-10T02:09:44.827Z,4.55
2023-10-10T02:10:51.300Z,4.80
2023-10-10T02:11:56.278Z,4.50
2023-10-10T02:13:01.340Z,4.80
2023-10-10T02:14:03.766Z,4.38
2023-10-10T02:15:13.016Z,4.82
2023-10-10T02:16:18.536Z,5.03
2023-10-10T02:17:23.823Z,4.90
2023-10-10T02:18:39.112Z,5.32
2023-10-10T02:19:42.483Z,4.78
2023-10-10T02:20:51.994Z,3.88
2023-10-10T02:22:04.936Z,5.07
2023-10-10T02:23:11.552Z,5.32
2023-10-10T02:24:37.974Z,4.07
2023-10-10T02:25:41.200Z,3.65
2023-10-10T02:26:43.753Z,3.72
2023-10-10T02:27:56.401Z,3.85
2023-10-10T02:29:14.277Z,4.03
2023-10-10T02:30:23.430Z,4.43
2023-10-10T02:31:29.461Z,4.53
2023-10-10T02:32:34.437Z,3.80
2023-10-10T02:33:38.933Z,4.65
2023-10-10T02:34:44.366Z,4.97
2023-10-10T02:36:04.959Z,4.38
2023-10-10T02:37:15.626Z,4.00
2023-10-10T02:38:18.282Z,4.47
2023-10-10T02:39:30.943Z,4.10
2023-10-10T02:40:43.196Z,4.03
2023-10-10T02:41:50.000Z,4.70
2023-10-10T02:43:10.634Z,4.15
2023-10-10T02:44:27.268Z,2.95
2023-10-10T02:45:29.845Z,3.90
2023-10-10T02:46:37.139Z,3.33
2023-10-10T02:47:45.754Z,3.92
2023-10-10T02:48:55.266Z,3.80
2023-10-10T02:50:02.146Z,3.85
2023-10-10T02:51:05.724Z,4.18
2023-10-10T02:52:09.012Z,4.95
2023-10-10T02:53:15.768Z,4.07
2023-10-10T02:54:22.711Z,3.38
2023-10-10T02:55:34.600Z,4.43
2023-10-10T02:56:44.734Z,4.85
2023-10-10T02:57:48.934Z,3.63
2023-10-10T02:58:55.592Z,3.65
2023-10-10T03:00:17.026Z,3.72
2023-10-10T03:01:49.419Z,5.00
2023-10-10T03:02:54.808Z,3.53
2023-10-10T03:03:58.644Z,3.55
2023-10-10T03:05:07.570Z,4.35
2023-10-10T03:06:12.193Z,4.05
2023-10-10T03:07:21.643Z,3.50
2023-10-10T03:08:35.828Z,3.65
2023-10-10T03:10:03.902Z,4.18
2023-10-10T03:11:16.274Z,3.53
2023-10-10T03:12:19.773Z,2.70
2023-10-10T03:13:38.319Z,3.13
2023-10-10T03:14:44.572Z,4.28
2023-10-10T03:15:56.918Z,3.90
2023-10-10T03:17:06.997Z,3.03
2023-10-10T03:18:29.556Z,3.33
2023-10-10T03:19:39.847Z,3.47
2023-10-10T03:20:51.997Z,3.65
2023-10-10T03:22:14.432Z,2.85
2023-10-10T03:23:33.465Z,3.47
2023-10-10T03:24:52.419Z,2.92
2023-10-10T03:25:55.895Z,3.17
2023-10-10T03:27:13.558Z,3.42
2023-10-10T03:28:30.637Z,3.28
2023-10-10T03:29:48.067Z,3.40
2023-10-10T03:30:56.750Z,3.50
2023-10-10T03:32:20.891Z,3.00
2023-10-10T03:33:37.096Z,3.72
2023-10-10T03:34:45.829Z,2.90
2023-10-10T03:36:01.139Z,3.60
2023-10-10T03:37:21.746Z,3.67
2023-10-10T03:38:46.957Z,2.50
2023-10-10T03:39:56.109Z,3.30
2023-10-10T03:41:16.543Z,3.47
2023-10-10T03:42:38.827Z,3.65
2023-10-10T03:44:00.072Z,2.67
2023-10-10T03:45:20.814Z,2.92
2023-10-10T03:46:47.134Z,3.00
2023-10-10T03:48:08.055Z,3.25
2023-10-10T03:49:29.079Z,3.78
2023-10-10T03:50:50.160Z,2.90
2023-10-10T03:52:10.378Z,3.30
2023-10-10T03:53:31.316Z,3.00
2023-10-10T03:54:52.147Z,3.05
2023-10-10T03:56:13.083Z,3.00
2023-10-10T03:57:33.898Z,2.63
2023-10-10T03:58:56.130Z,3.67
2023-10-10T04:00:18.775Z,2.55
2023-10-10T04:01:39.828Z,3.45
2023-10-10T04:03:00.445Z,2.88
2023-10-10T04:04:21.092Z,2.92
2023-10-10T04:05:41.880Z,2.50
2023-10-10T04:07:02.077Z,3.03
2023-10-10T04:08:23.150Z,2.50
2023-10-10T04:09:44.133Z,3.13
2023-10-10T04:11:05.700Z,2.92
2023-10-10T04:12:26.747Z,2.97
2023-10-10T04:13:47.714Z,2.13
2023-10-10T04:15:10.089Z,2.58
2023-10-10T04:16:30.371Z,2.72
2023-10-10T04:17:51.246Z,2.22
2023-10-10T04:19:12.087Z,2.45
2023-10-10T04:20:33.086Z,2.88
2023-10-10T04:21:54.044Z,2.40
2023-10-10T04:23:14.815Z,2.53
2023-10-10T04:24:35.882Z,2.85
2023-10-10T04:25:56.415Z,2.00
2023-10-10T04:27:17.447Z,3.20
2023-10-10T04:28:38.173Z,2.38
2023-10-10T04:30:07.397Z,1.83
2023-10-10T04:31:29.568Z,2.55
2023-10-10T04:32:50.578Z,1.67
2023-10-10T04:34:11.437Z,1.85
2023-10-10T04:35:32.530Z,2.63
2023-10-10T04:36:53.288Z,1.77
2023-10-10T04:38:14.255Z,2.72
2023-10-10T04:39:35.538Z,2.65
2023-10-10T04:40:56.571Z,2.17
2023-10-10T04:42:17.620Z,2.00
2023-10-10T04:43:38.441Z,3.15
2023-10-10T04:44:59.356Z,1.83
2023-10-10T04:46:20.611Z,2.65
2023-10-10T04:47:43.114Z,2.25
2023-10-10T04:49:04.108Z,2.00
2023-10-10T04:50:25.331Z,2.60
2023-10-10T04:51:46.044Z,2.10
2023-10-10T04:53:07.077Z,2.03
2023-10-10T04:54:27.901Z,2.13
2023-10-10T04:55:48.887Z,2.05
2023-10-10T04:57:11.290Z,1.95
2023-10-10T04:58:38.138Z,2.15
2023-10-10T04:59:59.175Z,2.28
2023-10-10T05:01:25.125Z,2.55
2023-10-10T05:02:47.401Z,2.30
2023-10-10T05:04:08.387Z,2.45
2023-10-10T05:05:31.447Z,2.50
2023-10-10T05:06:52.397Z,2.83
2023-10-10T05:08:13.537Z,2.78
2023-10-10T05:09:34.565Z,2.75
2023-10-10T05:10:57.732Z,2.97
2023-10-10T05:12:18.516Z,2.58
2023-10-10T05:13:39.395Z,2.97
2023-10-10T05:15:00.272Z,2.95
2023-10-10T05:16:22.756Z,3.45
2023-10-10T05:17:43.868Z,2.95
2023-10-10T05:19:06.322Z,2.55
2023-10-10T05:20:27.944Z,3.05
2023-10-10T05:21:48.605Z,2.92
2023-10-10T05:23:10.708Z,2.33
2023-10-10T05:24:16.114Z,2.47
2023-10-10T05:25:24.377Z,2.30
2023-10-10T05:26:31.804Z,2.40
2023-10-10T05:27:34.297Z,3.00
2023-10-10T05:28:41.763Z,2.40
2023-10-10T05:29:44.520Z,2.05
2023-10-10T05:30:47.228Z,2.40
2023-10-10T05:31:52.463Z,3.03
2023-10-10T05:33:02.414Z,1.90
2023-10-10T05:34:10.238Z,2.25
2023-10-10T05:35:12.931Z,2.63
2023-10-10T05:36:19.618Z,3.58
2023-10-10T05:37:21.978Z,2.45
2023-10-10T05:39:33.658Z,2.72
2023-10-10T05:40:39.372Z,1.85
2023-10-10T05:41:41.810Z,2.28
2023-10-10T05:42:46.325Z,2.40
2023-10-10T05:43:51.395Z,2.22
2023-10-10T05:44:53.884Z,2.08
2023-10-10T05:45:57.324Z,2.67
2023-10-10T05:46:59.820Z,2.50
2023-10-10T05:48:03.338Z,2.28
2023-10-10T05:49:07.245Z,2.50
2023-10-10T05:50:11.441Z,2.67
2023-10-10T05:51:14.899Z,2.65
2023-10-10T05:52:18.642Z,3.40
2023-10-10T05:53:21.616Z,2.58
2023-10-10T05:54:24.982Z,2.47
2023-10-10T05:55:27.377Z,2.42
2023-10-10T05:56:31.735Z,3.03
2023-10-10T05:57:35.224Z,2.47
2023-10-10T05:58:38.526Z,3.45
2023-10-10T05:59:40.869Z,2.85
2023-10-10T06:00:46.000Z,3.05
2023-10-10T06:01:48.372Z,2.42
2023-10-10T06:02:51.857Z,2.70
2023-10-10T06:03:54.285Z,2.92
2023-10-10T06:04:59.166Z,2.65
2023-10-10T06:06:04.974Z,3.80
2023-10-10T06:07:09.198Z,2.97
2023-10-10T06:08:11.946Z,2.42
2023-10-10T06:09:20.340Z,2.47
2023-10-10T06:10:29.993Z,2.83
2023-10-10T06:11:35.448Z,2.92
2023-10-10T06:12:38.077Z,2.53
2023-10-10T06:13:41.429Z,2.63
2023-10-10T06:14:44.039Z,2.70
2023-10-10T06:15:51.446Z,2.70
2023-10-10T06:16:55.261Z,2.85
2023-10-10T06:18:00.440Z,3.17
2023-10-10T06:19:03.147Z,2.97
2023-10-10T06:20:11.651Z,2.95
2023-10-10T06:21:16.100Z,2.50
2023-10-10T06:22:20.290Z,3.60
2023-10-10T06:23:22.699Z,2.53
2023-10-10T06:24:28.195Z,3.33
2023-10-10T06:25:30.587Z,3.13
2023-10-10T06:26:38.052Z,2.88
2023-10-10T06:27:42.221Z,3.30
2023-10-10T06:28:48.668Z,3.13
2023-10-10T06:29:51.104Z,3.08
2023-10-10T06:30:55.269Z,3.85
2023-10-10T06:31:57.991Z,3.72
2023-10-10T06:33:10.467Z,3.20
2023-10-10T06:34:21.834Z,3.28
2023-10-10T06:35:29.574Z,3.47
2023-10-10T06:36:35.772Z,4.15
2023-10-10T06:37:39.368Z,3.55
2023-10-10T06:38:42.690Z,3.22
2023-10-10T06:39:56.249Z,2.72
2023-10-10T06:41:00.395Z,2.85
2023-10-10T06:42:05.166Z,3.22
2023-10-10T06:43:09.128Z,3.03
2023-10-10T06:44:15.169Z,2.63
2023-10-10T06:45:23.181Z,2.70
2023-10-10T06:46:25.540Z,3.42
2023-10-10T06:47:30.129Z,3.35
2023-10-10T06:48:42.180Z,3.10
2023-10-10T06:49:46.364Z,2.75
2023-10-10T06:50:51.040Z,2.63
2023-10-10T06:51:56.797Z,2.50
2023-10-10T06:52:59.284Z,2.85
2023-10-10T06:54:04.843Z,3.97
2023-10-10T06:55:11.916Z,2.00
2023-10-10T06:56:19.224Z,3.38
2023-10-10T06:57:22.452Z,3.08
2023-10-10T06:58:24.779Z,2.35
2023-10-10T06:59:28.704Z,2.53
2023-10-10T07:00:43.573Z,2.13
2023-10-10T07:01:47.892Z,2.60
2023-10-10T07:02:54.236Z,2.38
2023-10-10T07:03:57.925Z,2.22
2023-10-10T07:05:00.402Z,2.83
2023-10-10T07:06:05.182Z,2.60
2023-10-10T07:07:08.704Z,2.30
2023-10-10T07:08:15.391Z,2.10
2023-10-10T07:09:28.611Z,2.45
2023-10-10T07:10:38.072Z,2.30
2023-10-10T07:11:40.717Z,2.15
2023-10-10T07:12:43.125Z,2.22
2023-10-10T07:13:46.575Z,3.38
2023-10-10T07:14:49.025Z,1.70
2023-10-10T07:15:53.956Z,2.83
2023-10-10T07:16:58.226Z,2.20
2023-10-10T07:18:09.970Z,2.33
2023-10-10T07:19:30.796Z,1.75
2023-10-10T07:20:48.631Z,2.20
2023-10-10T07:21:55.086Z,2.05
2023-10-10T07:23:01.091Z,2.15
2023-10-10T07:24:06.866Z,2.47
2023-10-10T07:25:18.772Z,2.78
2023-10-10T07:26:21.730Z,1.80
2023-10-10T07:27:31.469Z,2.28
2023-10-10T07:28:48.958Z,1.70
2023-10-10T07:30:09.888Z,2.00
2023-10-10T07:31:18.691Z,1.83
2023-10-10T07:32:29.469Z,1.90
2023-10-10T07:33:41.943Z,1.80
2023-10-10T07:34:50.801Z,2.58
2023-10-10T07:35:55.151Z,2.38
2023-10-10T07:37:00.298Z,2.63
2023-10-10T07:38:02.710Z,1.80
2023-10-10T07:39:20.036Z,2.75
2023-10-10T07:40:31.295Z,2.00
2023-10-10T07:41:37.257Z,2.38
2023-10-10T07:42:39.783Z,2.22
2023-10-10T07:43:43.365Z,2.00
2023-10-10T07:44:45.813Z,2.55
2023-10-10T07:45:53.199Z,1.80
2023-10-10T07:47:14.249Z,2.80
2023-10-10T07:48:40.502Z,1.40
2023-10-10T07:49:51.398Z,1.88
2023-10-10T07:51:07.244Z,2.50
2023-10-10T07:52:18.308Z,1.45
2023-10-10T07:53:21.929Z,1.80
2023-10-10T07:54:31.203Z,2.50
2023-10-10T07:55:52.579Z,2.20
2023-10-10T07:56:56.721Z,1.85
2023-10-10T07:58:00.852Z,1.92
2023-10-10T07:59:06.353Z,1.73
2023-10-10T08:00:18.346Z,2.10
2023-10-10T08:01:20.929Z,1.95
2023-10-10T08:02:33.083Z,1.70
2023-10-10T08:03:36.197Z,2.85
2023-10-10T08:04:39.022Z,2.72
2023-10-10T08:05:43.802Z,2.20
2023-10-10T08:06:46.253Z,1.92
2023-10-10T08:07:52.035Z,2.00
2023-10-10T08:09:17.451Z,1.80
2023-10-10T08:10:32.922Z,2.25
2023-10-10T08:11:37.324Z,1.70
2023-10-10T08:12:41.095Z,2.58
2023-10-10T08:13:49.756Z,1.98
2023-10-10T08:15:00.722Z,2.00
2023-10-10T08:16:03.398Z,2.13
2023-10-10T08:17:19.834Z,1.73
2023-10-10T08:18:41.727Z,2.08
2023-10-10T08:19:45.721Z,2.30
2023-10-10T08:21:06.781Z,2.53
2023-10-10T08:22:14.435Z,2.22
2023-10-10T08:23:18.336Z,2.58
2023-10-10T08:24:22.274Z,2.10
2023-10-10T08:25:24.623Z,2.60
2023-10-10T08:26:30.444Z,3.08
2023-10-10T08:27:34.514Z,2.55
2023-10-10T08:28:37.921Z,2.53
2023-10-10T08:29:41.459Z,1.88
2023-10-10T08:30:44.056Z,2.03
2023-10-10T08:31:47.617Z,1.63
2023-10-10T08:32:50.102Z,2.58
2023-10-10T08:33:54.118Z,1.73
2023-10-10T08:34:57.936Z,2.13
2023-10-10T08:36:01.544Z,1.77
2023-10-10T08:37:04.540Z,2.33
2023-10-10T08:38:08.013Z,2.15
2023-10-10T08:39:26.468Z,2.28
2023-10-10T08:40:35.235Z,2.25
2023-10-10T08:41:39.535Z,1.73
2023-10-10T08:42:43.061Z,1.60
2023-10-10T08:43:46.718Z,1.75
2023-10-10T08:44:56.833Z,1.80
2023-10-10T08:46:00.208Z,2.20
2023-10-10T08:47:04.917Z,2.35
2023-10-10T08:48:13.731Z,1.95
2023-10-10T08:49:17.920Z,1.98
2023-10-10T08:50:20.296Z,1.52
2023-10-10T08:51:22.687Z,2.20
2023-10-10T08:52:26.346Z,2.03
2023-10-10T08:53:28.829Z,2.30
2023-10-10T08:54:34.437Z,2.25
2023-10-10T08:55:40.802Z,2.15
2023-10-10T08:56:44.349Z,2.50
2023-10-10T08:57:46.917Z,2.25
2023-10-10T08:58:49.491Z,2.22
2023-10-10T08:59:53.880Z,2.42
2023-10-10T09:00:57.037Z,3.88
2023-10-10T09:02:10.973Z,5.88
2023-10-10T09:03:15.011Z,9.18
2023-10-10T09:04:21.097Z,3.60
2023-10-10T09:05:25.042Z,2.20
2023-10-10T09:06:35.673Z,2.90
2023-10-10T09:07:44.015Z,2.40
2023-10-10T09:08:51.418Z,2.60
2023-10-10T09:10:06.349Z,3.33
2023-10-10T09:11:10.911Z,3.67
2023-10-10T09:12:16.457Z,3.28
2023-10-10T09:13:20.071Z,2.53
2023-10-10T09:14:22.454Z,2.60
2023-10-10T09:15:26.021Z,2.90
2023-10-10T09:16:42.437Z,3.00
2023-10-10T09:17:46.927Z,3.58
2023-10-10T09:19:04.452Z,3.45
2023-10-10T09:20:19.120Z,2.83
2023-10-10T09:21:23.147Z,2.95
2023-10-10T09:22:35.689Z,2.83
2023-10-10T09:23:43.934Z,2.85
2023-10-10T09:24:49.948Z,2.88
2023-10-10T09:26:10.685Z,2.70
2023-10-10T09:27:28.551Z,2.88
2023-10-10T09:28:44.298Z,3.22
2023-10-10T09:29:51.181Z,3.22
2023-10-10T09:31:00.597Z,2.30
2023-10-10T09:32:06.774Z,2.88
2023-10-10T09:33:23.760Z,3.78
2023-10-10T09:34:29.769Z,3.30
2023-10-10T09:35:32.167Z,2.90
2023-10-10T09:36:39.543Z,3.30
2023-10-10T09:37:43.473Z,3.17
2023-10-10T09:38:48.369Z,2.97
2023-10-10T09:39:56.517Z,3.72
2023-10-10T09:41:12.068Z,3.63
2023-10-10T09:42:29.113Z,2.83
2023-10-10T09:43:37.255Z,3.42
2023-10-10T09:45:05.610Z,2.95
2023-10-10T09:46:12.465Z,2.60
2023-10-10T09:47:18.152Z,3.90
2023-10-10T09:48:47.338Z,2.85
2023-10-10T09:49:53.474Z,3.47
2023-10-10T09:51:09.519Z,2.88
2023-10-10T09:52:32.146Z,2.67
2023-10-10T09:53:36.404Z,2.60
2023-10-10T09:54:40.457Z,2.35
2023-10-10T09:55:45.733Z,2.85
2023-10-10T09:56:52.144Z,2.85
2023-10-10T09:58:02.002Z,2.38
2023-10-10T09:59:08.640Z,2.88
2023-10-10T10:00:26.664Z,2.88
2023-10-10T10:01:30.939Z,1.95
2023-10-10T10:02:41.769Z,2.47
2023-10-10T10:03:56.422Z,2.60
2023-10-10T10:05:00.553Z,2.03
2023-10-10T10:06:06.888Z,2.97
2023-10-10T10:07:39.119Z,2.05
2023-10-10T10:08:46.097Z,3.28
2023-10-10T10:10:13.299Z,2.45
2023-10-10T10:11:18.791Z,2.28
2023-10-10T10:12:34.955Z,2.45
2023-10-10T10:13:41.397Z,1.50
2023-10-10T10:14:48.406Z,2.03
2023-10-10T10:15:55.612Z,2.13
2023-10-10T10:17:13.614Z,1.63
2023-10-10T10:18:28.261Z,1.67
2023-10-10T10:19:38.980Z,1.80
2023-10-10T10:20:48.671Z,1.98
2023-10-10T10:22:00.456Z,2.13
2023-10-10T10:23:02.831Z,1.98
2023-10-10T10:24:18.731Z,1.55
2023-10-10T10:25:23.566Z,1.70
2023-10-10T10:26:36.280Z,2.35
2023-10-10T10:27:42.975Z,1.73
2023-10-10T10:28:57.546Z,2.28
2023-10-10T10:30:20.721Z,2.10
2023-10-10T10:31:29.571Z,1.90
2023-10-10T10:32:33.246Z,1.67
2023-10-10T10:33:54.029Z,2.08
2023-10-10T10:34:58.850Z,1.60
2023-10-10T10:36:07.981Z,1.77
2023-10-10T10:37:21.133Z,1.60
2023-10-10T10:38:24.456Z,1.65
2023-10-10T10:39:27.507Z,1.73
2023-10-10T10:40:43.161Z,1.83
2023-10-10T10:41:53.139Z,2.25
2023-10-10T10:43:04.896Z,1.63
2023-10-10T10:44:10.377Z,1.77
2023-10-10T10:45:27.725Z,2.10
2023-10-10T10:46:41.012Z,2.03
2023-10-10T10:47:50.203Z,1.40
2023-10-10T10:49:02.973Z,1.60
2023-10-10T10:50:06.893Z,1.70
2023-10-10T10:51:24.439Z,2.30
2023-10-10T10:52:44.958Z,1.55
2023-10-10T10:53:52.213Z,1.90
2023-10-10T10:55:19.943Z,1.83
2023-10-10T10:56:40.873Z,1.90
2023-10-10T10:57:50.209Z,1.75
2023-10-10T10:59:13.781Z,2.20
2023-10-10T11:00:29.465Z,1.40
2023-10-10T11:01:35.532Z,1.92
2023-10-10T11:02:39.297Z,2.22
2023-10-10T11:03:45.043Z,1.40
2023-10-10T11:04:51.506Z,1.98
2023-10-10T11:05:55.592Z,1.83
2023-10-10T11:07:05.007Z,1.52
2023-10-10T11:08:13.227Z,2.13
2023-10-10T11:09:25.084Z,1.63
2023-10-10T11:10:38.170Z,1.27
2023-10-10T11:11:41.923Z,1.55
2023-10-10T11:12:45.920Z,1.70
2023-10-10T11:13:49.988Z,1.60
2023-10-10T11:14:56.371Z,1.70
2023-10-10T11:16:11.788Z,2.33
2023-10-10T11:17:19.354Z,2.20
2023-10-10T11:18:36.051Z,2.33
2023-10-10T11:19:43.067Z,2.17
2023-10-10T11:20:57.987Z,2.00
2023-10-10T11:22:02.379Z,2.08
2023-10-10T11:23:12.911Z,2.25
2023-10-10T11:24:15.900Z,2.05
2023-10-10T11:25:28.173Z,1.65
2023-10-10T11:26:35.737Z,1.60
2023-10-10T11:27:45.917Z,2.45
2023-10-10T11:28:49.019Z,1.90
2023-10-10T11:29:55.732Z,1.30
2023-10-10T11:31:07.325Z,2.00
2023-10-10T11:32:12.941Z,1.50
2023-10-10T11:33:18.225Z,1.52
2023-10-10T11:34:35.053Z,1.60
2023-10-10T11:35:38.270Z,1.88
2023-10-10T11:36:40.995Z,1.30
2023-10-10T11:37:49.488Z,1.50
2023-10-10T11:38:57.033Z,1.42
2023-10-10T11:40:32.601Z,1.63
2023-10-10T11:41:39.162Z,1.20
2023-10-10T11:42:48.335Z,1.42
2023-10-10T11:44:04.725Z,1.88
2023-10-10T11:45:08.957Z,1.38
2023-10-10T11:46:13.894Z,1.77
2023-10-10T11:47:25.843Z,1.73
2023-10-10T11:48:30.560Z,1.33
2023-10-10T11:49:33.958Z,2.00
2023-10-10T11:50:45.896Z,1.70
2023-10-10T11:51:49.297Z,1.88
2023-10-10T11:52:51.978Z,1.63
2023-10-10T11:53:55.865Z,1.83
2023-10-10T11:55:01.432Z,1.80
2023-10-10T11:56:08.498Z,1.52
2023-10-10T11:57:11.111Z,1.35
2023-10-10T11:58:18.571Z,1.67
2023-10-10T11:59:21.559Z,1.83
2023-10-10T12:00:30.377Z,1.55
2023-10-10T12:01:52.853Z,1.85
2023-10-10T12:02:58.693Z,1.42
2023-10-10T12:04:21.593Z,1.55
2023-10-10T12:05:48.249Z,1.50
2023-10-10T12:06:50.628Z,1.58
2023-10-10T12:07:54.850Z,1.38
2023-10-10T12:08:58.238Z,1.73
2023-10-10T12:10:08.804Z,1.30
2023-10-10T12:11:13.702Z,1.20
2023-10-10T12:12:16.936Z,1.50
2023-10-10T12:13:35.404Z,1.30
2023-10-10T12:14:38.003Z,1.85
2023-10-10T12:15:42.266Z,1.60
2023-10-10T12:16:51.369Z,1.20
2023-10-10T12:17:56.834Z,1.80
2023-10-10T12:19:01.301Z,1.08
2023-10-10T12:20:05.472Z,1.42
2023-10-10T12:21:07.886Z,1.60
2023-10-10T12:22:12.216Z,1.40
2023-10-10T12:23:14.989Z,2.37
2023-10-10T12:24:18.429Z,2.53
2023-10-10T12:25:21.489Z,4.30
2023-10-10T12:26:27.911Z,2.00
2023-10-10T12:27:31.498Z,1.23
2023-10-10T12:28:34.966Z,1.33
2023-10-10T12:29:41.596Z,1.40
2023-10-10T12:30:45.335Z,1.23
2023-10-10T12:31:56.821Z,1.27
2023-10-10T12:33:01.240Z,1.30
2023-10-10T12:34:11.185Z,1.40
2023-10-10T12:35:13.710Z,1.27
2023-10-10T12:36:17.336Z,1.50
2023-10-10T12:37:19.757Z,1.07
2023-10-10T12:38:23.100Z,1.13
2023-10-10T12:39:28.728Z,1.70
2023-10-10T12:40:34.558Z,1.93
2023-10-10T12:41:47.246Z,1.33
2023-10-10T12:42:52.925Z,1.63
2023-10-10T12:43:55.327Z,1.20
2023-10-10T12:45:02.447Z,1.00
2023-10-10T12:46:05.738Z,1.00
2023-10-10T12:47:12.020Z,1.27
2023-10-10T12:48:16.200Z,1.40
2023-10-10T12:49:18.708Z,1.30
2023-10-10T12:50:27.576Z,1.20
2023-10-10T12:51:31.702Z,1.23
2023-10-10T12:52:44.564Z,1.13
2023-10-10T12:53:46.984Z,1.10
2023-10-10T12:54:59.432Z,1.23
2023-10-10T12:56:03.089Z,1.27
2023-10-10T12:57:14.842Z,1.33
2023-10-10T12:58:17.867Z,1.70
2023-10-10T12:59:26.446Z,1.30
2023-10-10T13:00:34.685Z,1.33
2023-10-10T13:01:38.366Z,2.03
2023-10-10T13:02:42.292Z,1.60
2023-10-10T13:03:49.522Z,1.40
2023-10-10T13:04:54.078Z,1.87
2023-10-10T13:06:01.241Z,1.90
2023-10-10T13:07:05.029Z,2.07
2023-10-10T13:08:10.381Z,1.70
2023-10-10T13:09:16.118Z,2.00
2023-10-10T13:10:19.440Z,2.57
2023-10-10T13:11:33.733Z,1.90
2023-10-10T13:12:38.009Z,1.80
2023-10-10T13:13:46.723Z,2.23
2023-10-10T13:15:06.100Z,1.03
2023-10-10T13:16:23.852Z,1.97
2023-10-10T13:17:50.152Z,2.03
2023-10-10T13:18:54.298Z,1.90
2023-10-10T13:20:00.076Z,1.80
2023-10-10T13:21:03.453Z,1.37
2023-10-10T13:22:08.231Z,1.83
2023-10-10T13:23:10.711Z,1.73
2023-10-10T13:24:15.378Z,1.70
2023-10-10T13:25:19.168Z,2.17
2023-10-10T13:26:22.902Z,1.93
2023-10-10T13:27:26.626Z,1.90
2023-10-10T13:28:30.651Z,1.90
2023-10-10T13:29:33.053Z,1.77
2023-10-10T13:30:37.117Z,1.98
2023-10-10T13:31:39.602Z,2.28
2023-10-10T13:32:44.220Z,2.40
2023-10-10T13:33:47.317Z,2.70
2023-10-10T13:34:53.025Z,2.60
2023-10-10T13:35:55.491Z,2.35
2023-10-10T13:36:58.863Z,2.95
2023-10-10T13:38:01.193Z,2.77
2023-10-10T13:39:08.985Z,4.07
2023-10-10T13:40:22.575Z,5.97
2023-10-10T13:41:29.031Z,2.80
2023-10-10T13:42:31.437Z,2.90
2023-10-10T13:43:34.741Z,2.75
2023-10-10T13:44:37.438Z,3.23
2023-10-10T13:45:40.039Z,2.58
2023-10-10T13:46:43.597Z,2.67
2023-10-10T13:47:49.509Z,2.10
2023-10-10T13:48:53.050Z,2.53
2023-10-10T13:50:17.453Z,2.83
2023-10-10T13:51:20.853Z,2.60
2023-10-10T13:52:23.272Z,2.73
2023-10-10T13:53:25.622Z,2.37
2023-10-10T13:54:29.433Z,2.78
2023-10-10T13:55:35.392Z,2.03
2023-10-10T13:56:39.065Z,2.77
2023-10-10T13:57:41.409Z,2.53
2023-10-10T13:58:48.281Z,2.30
2023-10-10T13:59:50.775Z,2.28
2023-10-10T14:01:11.792Z,2.37
2023-10-10T14:02:14.385Z,2.53
2023-10-10T14:03:17.869Z,2.20
2023-10-10T14:04:25.826Z,3.53
2023-10-10T14:05:32.268Z,3.40
2023-10-10T14:06:46.690Z,6.60
2023-10-10T14:07:51.106Z,3.30
2023-10-10T14:08:53.491Z,3.03
2023-10-10T14:10:03.296Z,3.20
2023-10-10T14:11:06.599Z,3.07
2023-10-10T14:12:17.770Z,2.23
2023-10-10T14:13:20.675Z,2.73
2023-10-10T14:14:24.230Z,2.20
2023-10-10T14:15:27.861Z,4.03
2023-10-10T14:16:33.678Z,4.10
2023-10-10T14:17:36.150Z,3.57
2023-10-10T14:18:44.440Z,3.80
2023-10-10T14:19:47.133Z,3.75
2023-10-10T14:20:51.690Z,4.03
2023-10-10T14:21:55.206Z,3.33
2023-10-10T14:22:58.513Z,3.63
2023-10-10T14:24:06.477Z,2.10
2023-10-10T14:25:13.606Z,2.40
2023-10-10T14:26:19.488Z,3.10
2023-10-10T14:27:23.455Z,4.18
2023-10-10T14:28:29.622Z,4.68
2023-10-10T14:29:42.663Z,3.50
2023-10-10T14:30:50.162Z,3.08
2023-10-10T14:31:59.835Z,2.80
2023-10-10T14:33:04.983Z,2.60
2023-10-10T14:34:07.441Z,2.60
2023-10-10T14:35:13.686Z,2.05
2023-10-10T14:36:18.026Z,2.50
2023-10-10T14:37:36.426Z,3.08
2023-10-10T14:38:46.307Z,2.53
2023-10-10T14:39:52.696Z,2.20
2023-10-10T14:40:55.060Z,2.28
2023-10-10T14:41:59.045Z,2.08
2023-10-10T14:43:07.228Z,2.28
2023-10-10T14:44:13.970Z,2.45
2023-10-10T14:45:16.648Z,2.65
2023-10-10T14:46:22.899Z,2.30
2023-10-10T14:47:25.693Z,2.10
2023-10-10T14:48:31.463Z,2.47
2023-10-10T14:49:36.137Z,1.80
2023-10-10T14:50:39.942Z,1.90
2023-10-10T14:51:49.412Z,2.05
2023-10-10T14:52:53.255Z,1.92
2023-10-10T14:53:55.611Z,1.75
2023-10-10T14:55:06.337Z,1.52
2023-10-10T14:56:08.686Z,2.40
2023-10-10T14:57:25.141Z,2.25
2023-10-10T14:58:28.383Z,2.28
2023-10-10T14:59:33.747Z,2.10
2023-10-10T15:00:43.333Z,2.13
2023-10-10T15:01:49.145Z,2.40
2023-10-10T15:02:54.562Z,2.78
2023-10-10T15:03:59.080Z,3.50
2023-10-10T15:05:10.073Z,3.45
2023-10-10T15:06:17.100Z,4.45
2023-10-10T15:07:20.825Z,5.97
2023-10-10T15:08:24.953Z,5.18
2023-10-10T15:09:28.014Z,6.00
2023-10-10T15:10:30.547Z,3.78
2023-10-10T15:11:34.417Z,6.80
2023-10-10T15:12:37.841Z,6.22
2023-10-10T15:13:42.854Z,5.93
2023-10-10T15:14:45.289Z,3.72
2023-10-10T15:15:49.471Z,4.07
2023-10-10T15:16:51.923Z,3.25
2023-10-10T15:17:55.451Z,3.40
2023-10-10T15:18:57.919Z,4.22
2023-10-10T15:20:01.376Z,4.10